Time;durP1;ratioP1;P1;durP2;ratioP2;P2;SDS_P1;SDS_P2;PMS_P1;PMS_P2;Temp;Humidity;BMP_temperature;BMP_pressure;BME280_temperature;BME280_humidity;BME280_pressure;Samples;Min_cycle;Max_cycle;Signal;HPM_P1;HPM_P2
2023/04/12 00:00:05;;;;;;;4.20;3.70;;;;;;;;;;5066380;28;20099;-60
2023/04/12 00:02:34;;;;;;;4.97;3.83;;;;;;;;;;5048339;28;20032;-60
2023/04/12 00:05:01;;;;;;;4.25;3.40;;;;;;;;;;5061105;28;20106;-60
2023/04/12 00:07:26;;;;;;;4.05;3.45;;;;;;;;;;5060436;28;20040;-60
2023/04/12 00:09:51;;;;;;;5.07;3.80;;;;;;;;;;5066243;28;20041;-60
2023/04/12 00:12:18;;;;;;;4.30;3.60;;;;;;;;;;5066400;28;20427;-60
2023/04/12 00:14:43;;;;;;;5.05;3.97;;;;;;;;;;5054203;28;20286;-60
2023/04/12 00:17:08;;;;;;;4.30;3.60;;;;;;;;;;5047944;28;20562;-60
2023/04/12 00:19:34;;;;;;;4.70;3.53;;;;;;;;;;5048228;28;20119;-60
2023/04/12 00:21:59;;;;;;;4.63;3.72;;;;;;;;;;5066103;28;20274;-60
2023/04/12 00:24:25;;;;;;;4.53;3.50;;;;;;;;;;5044246;28;20127;-60
2023/04/12 00:26:50;;;;;;;4.63;3.47;;;;;;;;;;5023622;28;20287;-60
2023/04/12 00:29:15;;;;;;;4.50;3.43;;;;;;;;;;5064394;28;20151;-60
2023/04/12 00:31:41;;;;;;;4.68;3.92;;;;;;;;;;5066236;28;20279;-60
2023/04/12 00:34:06;;;;;;;4.30;3.70;;;;;;;;;;5066170;28;20032;-59
2023/04/12 00:36:31;;;;;;;4.10;3.40;;;;;;;;;;5065218;28;20351;-59
2023/04/12 00:38:56;;;;;;;4.20;3.27;;;;;;;;;;5066176;28;20032;-60
2023/04/12 00:41:23;;;;;;;4.65;3.38;;;;;;;;;;5066129;28;20702;-59
2023/04/12 00:43:48;;;;;;;4.30;3.45;;;;;;;;;;5065800;28;20101;-59
2023/04/12 00:46:16;;;;;;;4.15;3.50;;;;;;;;;;5059130;28;20714;-59
2023/04/12 00:48:41;;;;;;;4.03;3.47;;;;;;;;;;5048005;28;20516;-60
2023/04/12 00:51:06;;;;;;;3.75;3.33;;;;;;;;;;5044632;28;20080;-59
2023/04/12 00:53:32;;;;;;;4.03;3.20;;;;;;;;;;5065364;28;20033;-61
2023/04/12 00:55:57;;;;;;;3.83;3.43;;;;;;;;;;5047535;28;20416;-59
2023/04/12 00:58:25;;;;;;;3.97;3.37;;;;;;;;;;5051620;28;20271;-59
2023/04/12 01:00:51;;;;;;;4.30;3.58;;;;;;;;;;5039600;28;21075;-59
2023/04/12 01:03:23;;;;;;;4.28;3.42;;;;;;;;;;5050017;28;20040;-60
2023/04/12 01:06:09;;;;;;;4.65;3.72;;;;;;;;;;5030242;28;20090;-60
2023/04/12 01:08:42;;;;;;;3.67;3.35;;;;;;;;;;5044578;28;20056;-60
2023/04/12 01:11:11;;;;;;;3.45;3.15;;;;;;;;;;5041684;28;20074;-59
2023/04/12 01:13:46;;;;;;;4.45;3.65;;;;;;;;;;5029538;28;20071;-60
2023/04/12 01:16:14;;;;;;;4.35;3.30;;;;;;;;;;5052768;28;20044;-60
2023/04/12 01:18:40;;;;;;;3.80;3.03;;;;;;;;;;5039402;28;20079;-60
2023/04/12 01:21:07;;;;;;;4.18;3.55;;;;;;;;;;5018225;28;20505;-60
2023/04/12 01:23:48;;;;;;;4.05;3.38;;;;;;;;;;5046435;28;20420;-59
2023/04/12 01:26:14;;;;;;;3.90;3.47;;;;;;;;;;5054349;28;20032;-59
2023/04/12 01:28:40;;;;;;;3.13;2.83;;;;;;;;;;5038721;28;20381;-59
2023/04/12 01:31:05;;;;;;;3.92;3.20;;;;;;;;;;5044925;28;20125;-60
2023/04/12 01:33:31;;;;;;;3.60;3.20;;;;;;;;;;5031868;28;20081;-60
2023/04/12 01:35:57;;;;;;;3.45;2.80;;;;;;;;;;5051856;28;20045;-60
2023/04/12 01:38:23;;;;;;;4.22;3.47;;;;;;;;;;5032825;28;20498;-60
2023/04/12 01:40:48;;;;;;;3.63;3.20;;;;;;;;;;5045499;28;20135;-60
2023/04/12 01:43:15;;;;;;;4.18;3.42;;;;;;;;;;5050842;28;20385;-59
2023/04/12 01:45:40;;;;;;;4.18;3.60;;;;;;;;;;5036042;28;20417;-59
2023/04/12 01:48:06;;;;;;;4.20;3.35;;;;;;;;;;5047019;28;20052;-59
2023/04/12 01:50:31;;;;;;;3.72;3.30;;;;;;;;;;5050650;28;20048;-59
2023/04/12 01:53:00;;;;;;;3.60;3.10;;;;;;;;;;5030853;28;20041;-60
2023/04/12 01:55:25;;;;;;;4.15;3.55;;;;;;;;;;5046954;28;20029;-60
2023/04/12 01:57:50;;;;;;;3.97;3.10;;;;;;;;;;5045393;28;21394;-60
2023/04/12 02:00:16;;;;;;;3.77;3.30;;;;;;;;;;5035823;28;20467;-60
2023/04/12 02:02:41;;;;;;;3.78;2.90;;;;;;;;;;5036365;28;20297;-61
2023/04/12 02:05:07;;;;;;;4.22;3.60;;;;;;;;;;5056998;28;20033;-60
2023/04/12 02:07:32;;;;;;;3.38;3.08;;;;;;;;;;5028918;28;20493;-60
2023/04/12 02:09:57;;;;;;;3.30;3.00;;;;;;;;;;5053149;28;20489;-60
2023/04/12 02:12:22;;;;;;;3.90;3.20;;;;;;;;;;5043813;28;20039;-60
2023/04/12 02:14:50;;;;;;;3.45;2.90;;;;;;;;;;5050946;28;20025;-59
2023/04/12 02:17:16;;;;;;;4.38;3.28;;;;;;;;;;5037559;28;20222;-61
2023/04/12 02:19:41;;;;;;;3.92;3.30;;;;;;;;;;5050332;28;20139;-60
2023/04/12 02:22:07;;;;;;;4.17;3.17;;;;;;;;;;5046277;28;20801;-60
2023/04/12 02:24:32;;;;;;;3.67;2.95;;;;;;;;;;5051008;28;20683;-60
2023/04/12 02:26:58;;;;;;;4.03;3.30;;;;;;;;;;5025434;28;20426;-60
2023/04/12 02:29:23;;;;;;;3.40;3.00;;;;;;;;;;5053094;28;20057;-60
2023/04/12 02:31:48;;;;;;;3.67;3.00;;;;;;;;;;5027829;28;20040;-60
2023/04/12 02:34:16;;;;;;;3.55;2.80;;;;;;;;;;5041859;28;20283;-60
2023/04/12 02:36:45;;;;;;;3.75;3.30;;;;;;;;;;5051329;28;20045;-60
2023/04/12 02:39:10;;;;;;;3.20;2.90;;;;;;;;;;5043320;28;20039;-60
2023/04/12 02:41:35;;;;;;;3.83;3.10;;;;;;;;;;5049297;28;20144;-60
2023/04/12 02:44:00;;;;;;;4.20;3.30;;;;;;;;;;5043723;28;20294;-61
2023/04/12 02:46:26;;;;;;;3.58;3.03;;;;;;;;;;5042818;28;20271;-61
2023/04/12 02:48:51;;;;;;;3.40;3.08;;;;;;;;;;5031652;28;20029;-60
2023/04/12 02:51:16;;;;;;;3.27;2.73;;;;;;;;;;5049101;28;20357;-61
2023/04/12 02:53:41;;;;;;;4.30;3.10;;;;;;;;;;5046898;28;20384;-60
2023/04/12 02:56:07;;;;;;;3.40;3.10;;;;;;;;;;5034719;28;20321;-61
2023/04/12 02:58:33;;;;;;;3.63;3.03;;;;;;;;;;5025523;28;20061;-60
2023/04/12 03:01:01;;;;;;;5.57;3.50;;;;;;;;;;5025743;28;20115;-60
2023/04/12 03:03:27;;;;;;;3.63;3.17;;;;;;;;;;5022925;28;20045;-60
2023/04/12 03:05:53;;;;;;;3.80;3.30;;;;;;;;;;5058789;28;20059;-61
2023/04/12 03:08:18;;;;;;;3.78;3.38;;;;;;;;;;5050663;28;20052;-60
2023/04/12 03:10:44;;;;;;;3.70;3.00;;;;;;;;;;5061083;28;20048;-61
2023/04/12 03:13:10;;;;;;;3.85;3.35;;;;;;;;;;5063042;28;20401;-60
2023/04/12 03:15:35;;;;;;;3.40;3.10;;;;;;;;;;5040714;28;20512;-60
2023/04/12 03:18:00;;;;;;;3.30;2.70;;;;;;;;;;5056361;28;20052;-61
2023/04/12 03:20:27;;;;;;;4.20;3.30;;;;;;;;;;5063324;28;20456;-60
2023/04/12 03:22:52;;;;;;;3.92;2.90;;;;;;;;;;5062175;28;20053;-60
2023/04/12 03:25:17;;;;;;;3.77;3.03;;;;;;;;;;5062836;28;20432;-60
2023/04/12 03:27:42;;;;;;;4.10;3.30;;;;;;;;;;5044790;28;20351;-60
2023/04/12 03:30:10;;;;;;;3.58;3.00;;;;;;;;;;5061522;28;20310;-60
2023/04/12 03:32:35;;;;;;;4.38;3.35;;;;;;;;;;5058268;28;20041;-60
2023/04/12 03:35:00;;;;;;;3.80;3.20;;;;;;;;;;5056515;28;20074;-60
2023/04/12 03:37:26;;;;;;;3.13;2.78;;;;;;;;;;5062441;28;20283;-60
2023/04/12 03:39:51;;;;;;;3.50;3.20;;;;;;;;;;5050195;28;20063;-60
2023/04/12 03:42:16;;;;;;;3.40;2.90;;;;;;;;;;5067972;28;20332;-60
2023/04/12 03:44:42;;;;;;;2.90;2.60;;;;;;;;;;5050549;28;20817;-60
2023/04/12 03:47:07;;;;;;;3.63;2.95;;;;;;;;;;5067768;28;20043;-60
2023/04/12 03:49:32;;;;;;;3.30;2.73;;;;;;;;;;5061849;28;20044;-62
2023/04/12 03:51:57;;;;;;;3.33;2.73;;;;;;;;;;5072114;28;20275;-59
2023/04/12 03:54:23;;;;;;;3.10;2.67;;;;;;;;;;5070641;28;20774;-60
2023/04/12 03:56:48;;;;;;;3.00;2.70;;;;;;;;;;5064919;28;20509;-60
2023/04/12 03:59:13;;;;;;;3.43;2.80;;;;;;;;;;5061877;28;20067;-61
2023/04/12 04:01:40;;;;;;;3.92;2.90;;;;;;;;;;5069643;28;20802;-60
2023/04/12 04:04:06;;;;;;;3.38;2.88;;;;;;;;;;5038609;28;20037;-61
2023/04/12 04:06:31;;;;;;;3.03;2.65;;;;;;;;;;5062941;28;20051;-61
2023/04/12 04:08:57;;;;;;;3.40;2.70;;;;;;;;;;5051153;28;20111;-60
2023/04/12 04:11:23;;;;;;;3.13;2.83;;;;;;;;;;5068882;28;20505;-60
2023/04/12 04:13:48;;;;;;;3.42;2.70;;;;;;;;;;5068546;28;20107;-61
2023/04/12 04:16:14;;;;;;;3.17;2.70;;;;;;;;;;5064046;28;20124;-61
2023/04/12 04:18:39;;;;;;;2.92;2.50;;;;;;;;;;5047324;28;20505;-61
2023/04/12 04:21:06;;;;;;;3.40;2.63;;;;;;;;;;5061954;28;20138;-61
2023/04/12 04:23:37;;;;;;;3.05;2.72;;;;;;;;;;5062818;28;20715;-61
2023/04/12 04:26:04;;;;;;;3.03;2.70;;;;;;;;;;5061893;28;20579;-60
2023/04/12 04:28:29;;;;;;;3.60;2.97;;;;;;;;;;5015000;28;20037;-61
2023/04/12 04:30:55;;;;;;;2.90;2.60;;;;;;;;;;5049783;28;20512;-61
2023/04/12 04:33:20;;;;;;;3.28;2.88;;;;;;;;;;5052227;28;20481;-61
2023/04/12 04:35:45;;;;;;;3.37;2.87;;;;;;;;;;5060826;28;20041;-61
2023/04/12 04:38:10;;;;;;;3.22;2.85;;;;;;;;;;5063894;28;20044;-61
2023/04/12 04:40:36;;;;;;;3.27;2.60;;;;;;;;;;5049687;28;20037;-60
2023/04/12 04:43:01;;;;;;;2.92;2.60;;;;;;;;;;5065329;28;20397;-60
2023/04/12 04:45:27;;;;;;;2.87;2.40;;;;;;;;;;5060388;28;20097;-62
2023/04/12 04:47:52;;;;;;;3.00;2.67;;;;;;;;;;5054458;28;20056;-60
2023/04/12 04:50:17;;;;;;;3.20;2.65;;;;;;;;;;5065557;28;20310;-60
2023/04/12 04:52:43;;;;;;;3.20;2.60;;;;;;;;;;5030900;28;20209;-60
2023/04/12 04:55:09;;;;;;;3.85;3.10;;;;;;;;;;5062585;28;20283;-61
2023/04/12 04:57:35;;;;;;;3.05;2.67;;;;;;;;;;5010614;28;20589;-62
2023/04/12 05:00:00;;;;;;;3.22;2.67;;;;;;;;;;5058569;28;20029;-61
2023/04/12 05:02:25;;;;;;;3.60;2.72;;;;;;;;;;5043909;28;20029;-60
2023/04/12 05:04:51;;;;;;;3.60;2.70;;;;;;;;;;5049827;28;20029;-61
2023/04/12 05:07:16;;;;;;;3.80;2.90;;;;;;;;;;5055259;28;20477;-60
2023/04/12 05:09:41;;;;;;;3.67;3.03;;;;;;;;;;5056304;28;20143;-60
2023/04/12 05:12:07;;;;;;;2.87;2.57;;;;;;;;;;5058370;28;20290;-61
2023/04/12 05:14:32;;;;;;;3.72;3.05;;;;;;;;;;5045617;28;20037;-61
2023/04/12 05:16:57;;;;;;;3.30;2.90;;;;;;;;;;5052094;28;20060;-60
2023/04/12 05:19:22;;;;;;;3.53;2.73;;;;;;;;;;5020617;28;20296;-60
2023/04/12 05:21:47;;;;;;;3.20;2.70;;;;;;;;;;5064224;28;20271;-59
2023/04/12 05:24:13;;;;;;;3.53;2.93;;;;;;;;;;5052328;28;20299;-61
2023/04/12 05:26:38;;;;;;;4.53;2.80;;;;;;;;;;5052142;28;20390;-60
2023/04/12 05:29:05;;;;;;;3.43;3.00;;;;;;;;;;5028308;28;20283;-61
2023/04/12 05:31:31;;;;;;;3.63;2.90;;;;;;;;;;5058879;28;20203;-60
2023/04/12 05:33:56;;;;;;;3.40;2.70;;;;;;;;;;5048973;28;20209;-60
2023/04/12 05:36:21;;;;;;;3.28;2.92;;;;;;;;;;5034336;28;20139;-59
2023/04/12 05:38:46;;;;;;;3.20;2.83;;;;;;;;;;5056310;28;20025;-60
2023/04/12 05:41:12;;;;;;;3.23;2.63;;;;;;;;;;5047620;28;20284;-60
2023/04/12 05:43:37;;;;;;;3.47;2.80;;;;;;;;;;5046753;28;20858;-60
2023/04/12 05:46:03;;;;;;;3.53;2.67;;;;;;;;;;5030758;28;20037;-59
2023/04/12 05:48:29;;;;;;;3.45;2.90;;;;;;;;;;5046475;28;20700;-59
2023/04/12 05:50:56;;;;;;;3.75;3.00;;;;;;;;;;5049362;28;20089;-61
2023/04/12 05:53:21;;;;;;;4.05;2.80;;;;;;;;;;5057031;28;20149;-59
2023/04/12 05:55:47;;;;;;;3.33;2.90;;;;;;;;;;5046230;28;20031;-59
2023/04/12 05:58:12;;;;;;;3.45;2.95;;;;;;;;;;5054888;28;20033;-60
2023/04/12 06:00:44;;;;;;;3.50;2.60;;;;;;;;;;5037065;28;20378;-60
2023/04/12 06:03:10;;;;;;;3.78;3.08;;;;;;;;;;5033760;28;20024;-59
2023/04/12 06:05:35;;;;;;;3.38;3.08;;;;;;;;;;5035406;28;20012;-60
2023/04/12 06:08:00;;;;;;;3.47;2.73;;;;;;;;;;5054908;28;20016;-61
2023/04/12 06:10:26;;;;;;;3.15;2.78;;;;;;;;;;5057344;28;20342;-60
2023/04/12 06:12:51;;;;;;;3.87;2.67;;;;;;;;;;5058247;28;20029;-61
2023/04/12 06:15:18;;;;;;;3.40;2.80;;;;;;;;;;5043911;28;20259;-60
2023/04/12 06:17:44;;;;;;;3.05;2.60;;;;;;;;;;5064824;28;20012;-59
2023/04/12 06:20:09;;;;;;;5.35;3.08;;;;;;;;;;5065383;28;21349;-60
2023/04/12 06:22:35;;;;;;;3.45;2.90;;;;;;;;;;5063704;28;20143;-60
2023/04/12 06:25:00;;;;;;;2.97;2.67;;;;;;;;;;5033673;28;20027;-60
2023/04/12 06:27:26;;;;;;;3.90;2.93;;;;;;;;;;5058439;28;20051;-60
2023/04/12 06:29:51;;;;;;;4.10;3.35;;;;;;;;;;5045127;28;20372;-60
2023/04/12 06:32:16;;;;;;;4.37;3.10;;;;;;;;;;5050480;28;20111;-60
2023/04/12 06:34:42;;;;;;;3.92;2.80;;;;;;;;;;5046674;28;20270;-61
2023/04/12 06:37:07;;;;;;;3.78;2.80;;;;;;;;;;5056472;28;20060;-60
2023/04/12 06:39:32;;;;;;;4.03;2.80;;;;;;;;;;5045520;28;20055;-60
2023/04/12 06:41:58;;;;;;;3.83;2.80;;;;;;;;;;5054246;28;20701;-60
2023/04/12 06:44:25;;;;;;;3.47;2.80;;;;;;;;;;5055237;28;20467;-60
2023/04/12 06:46:50;;;;;;;3.65;2.70;;;;;;;;;;5054790;28;20123;-61
2023/04/12 06:49:15;;;;;;;3.33;2.53;;;;;;;;;;5047762;28;20557;-61
2023/04/12 06:51:40;;;;;;;3.80;2.60;;;;;;;;;;5052954;28;20276;-60
2023/04/12 06:54:06;;;;;;;3.33;2.90;;;;;;;;;;5033351;28;20117;-60
2023/04/12 06:56:31;;;;;;;3.70;3.00;;;;;;;;;;5055282;28;20037;-61
2023/04/12 06:58:57;;;;;;;3.60;2.90;;;;;;;;;;5057688;28;20080;-59
2023/04/12 07:01:22;;;;;;;3.50;2.42;;;;;;;;;;5047875;28;20049;-59
2023/04/12 07:03:48;;;;;;;3.27;2.70;;;;;;;;;;5044161;28;20040;-60
2023/04/12 07:06:13;;;;;;;3.83;2.83;;;;;;;;;;5048305;28;20195;-60
2023/04/12 07:08:38;;;;;;;4.00;3.00;;;;;;;;;;5054612;28;20032;-60
2023/04/12 07:11:04;;;;;;;3.92;2.70;;;;;;;;;;5045494;28;20102;-61
2023/04/12 07:13:30;;;;;;;4.40;2.90;;;;;;;;;;5048614;28;20040;-59
2023/04/12 07:15:55;;;;;;;3.45;2.58;;;;;;;;;;5050166;28;20024;-64
2023/04/12 07:18:20;;;;;;;4.80;3.08;;;;;;;;;;5032132;28;20036;-59
2023/04/12 07:20:47;;;;;;;3.80;3.00;;;;;;;;;;5046081;28;20122;-60
2023/04/12 07:23:12;;;;;;;4.03;2.53;;;;;;;;;;5048362;28;20291;-59
2023/04/12 07:25:37;;;;;;;4.28;3.00;;;;;;;;;;5044358;28;20182;-59
2023/04/12 07:28:03;;;;;;;3.70;2.90;;;;;;;;;;5044367;28;20372;-59
2023/04/12 07:30:28;;;;;;;3.40;2.50;;;;;;;;;;5044149;28;20838;-59
2023/04/12 07:32:53;;;;;;;4.33;2.73;;;;;;;;;;5046214;28;20417;-60
2023/04/12 07:35:19;;;;;;;4.40;3.17;;;;;;;;;;5044119;28;20263;-59
2023/04/12 07:37:45;;;;;;;4.65;2.78;;;;;;;;;;5047302;28;20036;-59
2023/04/12 07:40:10;;;;;;;3.90;2.70;;;;;;;;;;5046061;28;20049;-60
2023/04/12 07:42:35;;;;;;;4.13;2.78;;;;;;;;;;5035882;28;20119;-59
2023/04/12 07:45:00;;;;;;;5.13;3.20;;;;;;;;;;5058402;28;20120;-61
2023/04/12 07:47:26;;;;;;;3.77;2.87;;;;;;;;;;5048695;28;21338;-61
2023/04/12 07:49:51;;;;;;;4.87;2.63;;;;;;;;;;5043972;28;20306;-60
2023/04/12 07:52:16;;;;;;;3.95;2.33;;;;;;;;;;5057148;28;20328;-61
2023/04/12 07:54:42;;;;;;;3.50;2.80;;;;;;;;;;5051406;28;20444;-60
2023/04/12 07:57:07;;;;;;;4.32;2.88;;;;;;;;;;5052277;28;20292;-60
2023/04/12 07:59:33;;;;;;;3.88;2.97;;;;;;;;;;5049598;28;20025;-60
2023/04/12 08:01:58;;;;;;;5.78;3.00;;;;;;;;;;5045928;28;20037;-60
2023/04/12 08:04:23;;;;;;;5.82;2.60;;;;;;;;;;5043562;28;20032;-60
2023/04/12 08:06:49;;;;;;;5.30;2.83;;;;;;;;;;5044117;28;20036;-60
2023/04/12 08:09:14;;;;;;;5.07;2.80;;;;;;;;;;5027046;28;20326;-60
2023/04/12 08:11:39;;;;;;;5.05;2.83;;;;;;;;;;5038637;28;20036;-59
2023/04/12 08:14:05;;;;;;;4.97;3.00;;;;;;;;;;5047156;28;20033;-61
2023/04/12 08:16:31;;;;;;;3.50;2.87;;;;;;;;;;5049808;28;20052;-62
2023/04/12 08:18:56;;;;;;;4.72;3.00;;;;;;;;;;5049708;28;20279;-60
2023/04/12 08:21:22;;;;;;;5.28;2.90;;;;;;;;;;5047464;28;20041;-61
2023/04/12 08:23:49;;;;;;;3.45;2.75;;;;;;;;;;5052462;28;20032;-61
2023/04/12 08:26:14;;;;;;;4.65;2.97;;;;;;;;;;5037321;28;20036;-61
2023/04/12 08:28:40;;;;;;;6.30;3.10;;;;;;;;;;5047718;28;20041;-61
2023/04/12 08:31:06;;;;;;;4.22;2.53;;;;;;;;;;5055857;28;20460;-61
2023/04/12 08:33:31;;;;;;;4.78;2.75;;;;;;;;;;5049099;28;20040;-61
2023/04/12 08:35:56;;;;;;;4.90;2.60;;;;;;;;;;5023312;28;20032;-60
2023/04/12 08:38:22;;;;;;;4.38;3.03;;;;;;;;;;5037812;28;20033;-60
2023/04/12 08:40:47;;;;;;;4.37;2.60;;;;;;;;;;5052717;28;20444;-60
2023/04/12 08:43:12;;;;;;;4.43;2.53;;;;;;;;;;5031816;28;20276;-60
2023/04/12 08:45:38;;;;;;;7.38;2.75;;;;;;;;;;5025362;28;20358;-60
2023/04/12 08:48:03;;;;;;;4.28;2.75;;;;;;;;;;5052782;28;20192;-59
2023/04/12 08:50:28;;;;;;;4.07;2.55;;;;;;;;;;5053631;28;20049;-62
2023/04/12 08:52:54;;;;;;;4.00;2.67;;;;;;;;;;5044174;28;20029;-58
2023/04/12 08:55:19;;;;;;;4.43;2.90;;;;;;;;;;5050948;28;20272;-60
2023/04/12 08:57:44;;;;;;;5.88;2.67;;;;;;;;;;5032682;28;20486;-60
2023/04/12 09:00:11;;;;;;;4.13;2.35;;;;;;;;;;5042156;28;20038;-60
2023/04/12 09:02:37;;;;;;;5.43;2.50;;;;;;;;;;5061126;28;20465;-59
2023/04/12 09:05:02;;;;;;;3.25;2.30;;;;;;;;;;5054197;28;20079;-60
2023/04/12 09:07:29;;;;;;;4.25;2.60;;;;;;;;;;5035405;28;20072;-60
2023/04/12 09:09:55;;;;;;;4.55;2.60;;;;;;;;;;5058556;28;20037;-60
2023/04/12 09:12:22;;;;;;;5.45;2.88;;;;;;;;;;5047092;28;20458;-59
2023/04/12 09:14:48;;;;;;;6.53;2.42;;;;;;;;;;5046615;28;20516;-60
2023/04/12 09:17:26;;;;;;;4.83;2.70;;;;;;;;;;5049259;28;20125;-60
2023/04/12 09:19:52;;;;;;;14.00;3.15;;;;;;;;;;5055924;28;20284;-60
2023/04/12 09:22:17;;;;;;;5.55;2.53;;;;;;;;;;5056256;28;20044;-62
2023/04/12 09:24:46;;;;;;;4.67;2.50;;;;;;;;;;5041117;28;20128;-58
2023/04/12 09:27:11;;;;;;;4.00;2.30;;;;;;;;;;5048285;28;20288;-61
2023/04/12 09:29:36;;;;;;;4.00;2.75;;;;;;;;;;5046325;28;20759;-61
2023/04/12 09:32:02;;;;;;;4.97;2.30;;;;;;;;;;5044456;28;20793;-60
2023/04/12 09:34:31;;;;;;;5.20;2.60;;;;;;;;;;5051356;28;20287;-62
2023/04/12 09:36:56;;;;;;;5.22;2.50;;;;;;;;;;5057746;28;20029;-60
2023/04/12 09:39:34;;;;;;;7.65;2.88;;;;;;;;;;5046272;28;20620;-60
2023/04/12 09:42:09;;;;;;;7.85;3.60;;;;;;;;;;5046548;28;20029;-60
2023/04/12 09:44:34;;;;;;;8.20;2.85;;;;;;;;;;5059020;28;20044;-60
2023/04/12 09:47:04;;;;;;;7.93;2.90;;;;;;;;;;5046083;28;20033;-61
2023/04/12 09:49:37;;;;;;;7.40;2.70;;;;;;;;;;5053805;28;20679;-62
2023/04/12 09:52:02;;;;;;;5.15;3.05;;;;;;;;;;5050677;28;20287;-62
2023/04/12 09:54:27;;;;;;;5.63;2.92;;;;;;;;;;5052172;28;20051;-60
2023/04/12 09:56:52;;;;;;;7.63;3.20;;;;;;;;;;5033300;28;20047;-60
2023/04/12 09:59:18;;;;;;;5.37;2.70;;;;;;;;;;5052211;28;20287;-59
2023/04/12 10:01:43;;;;;;;5.73;2.70;;;;;;;;;;5063677;28;20069;-58
2023/04/12 10:04:08;;;;;;;7.17;3.00;;;;;;;;;;5062527;28;20120;-59
2023/04/12 10:06:33;;;;;;;4.85;2.60;;;;;;;;;;5040775;28;20036;-59
2023/04/12 10:09:01;;;;;;;5.38;2.67;;;;;;;;;;5032725;28;20044;-60
2023/04/12 10:11:27;;;;;;;5.43;2.88;;;;;;;;;;5027310;28;20063;-61
2023/04/12 10:13:52;;;;;;;3.95;2.60;;;;;;;;;;5061189;28;20044;-59
2023/04/12 10:16:17;;;;;;;5.27;2.37;;;;;;;;;;5037115;28;20040;-59
2023/04/12 10:18:42;;;;;;;4.23;2.60;;;;;;;;;;5050476;28;20029;-60
2023/04/12 10:21:08;;;;;;;5.10;2.30;;;;;;;;;;5056456;28;20297;-60
2023/04/12 10:23:33;;;;;;;4.32;2.30;;;;;;;;;;5054799;28;20471;-61
2023/04/12 10:25:58;;;;;;;5.63;2.50;;;;;;;;;;5028535;28;20121;-60
2023/04/12 10:28:24;;;;;;;4.78;2.83;;;;;;;;;;5058109;28;20037;-61
2023/04/12 10:30:51;;;;;;;5.43;2.70;;;;;;;;;;5049880;28;20073;-61
2023/04/12 10:33:17;;;;;;;5.10;2.80;;;;;;;;;;5060630;28;20033;-61
2023/04/12 10:35:51;;;;;;;4.93;2.80;;;;;;;;;;5044867;28;20025;-61
2023/04/12 10:38:16;;;;;;;4.05;2.38;;;;;;;;;;5049991;28;20197;-60
2023/04/12 10:41:00;;;;;;;4.07;2.30;;;;;;;;;;5051454;28;20036;-60
2023/04/12 10:43:26;;;;;;;3.05;1.95;;;;;;;;;;5047179;28;20279;-59
2023/04/12 10:45:51;;;;;;;4.35;2.30;;;;;;;;;;5049720;28;20035;-60
2023/04/12 10:48:32;;;;;;;5.40;2.53;;;;;;;;;;5017566;28;20540;-59
2023/04/12 10:51:16;;;;;;;4.18;2.47;;;;;;;;;;5055288;28;20287;-59
2023/04/12 10:53:42;;;;;;;3.60;2.00;;;;;;;;;;5057950;28;20035;-59
2023/04/12 10:56:27;;;;;;;3.28;2.30;;;;;;;;;;5063602;28;20036;-59
2023/04/12 10:58:53;;;;;;;3.75;2.33;;;;;;;;;;5031984;28;20509;-59
2023/04/12 11:01:19;;;;;;;3.80;2.20;;;;;;;;;;5036144;28;20051;-60
2023/04/12 11:04:03;;;;;;;4.38;2.45;;;;;;;;;;5044702;28;20156;-60
2023/04/12 11:06:50;;;;;;;4.78;2.38;;;;;;;;;;5057831;28;20040;-60
2023/04/12 11:09:26;;;;;;;3.13;1.95;;;;;;;;;;5060467;28;20021;-59
2023/04/12 11:11:58;;;;;;;3.65;2.20;;;;;;;;;;5018519;28;20126;-59
2023/04/12 11:14:27;;;;;;;4.20;2.00;;;;;;;;;;5027006;28;20037;-60
2023/04/12 11:17:05;;;;;;;3.80;1.90;;;;;;;;;;5047432;28;20523;-59
2023/04/12 11:19:35;;;;;;;4.40;2.10;;;;;;;;;;5045628;28;20124;-60
2023/04/12 11:22:02;;;;;;;4.15;2.28;;;;;;;;;;5050412;28;20036;-60
2023/04/12 11:24:27;;;;;;;3.45;1.83;;;;;;;;;;5037652;28;20566;-60
2023/04/12 11:26:52;;;;;;;5.03;2.23;;;;;;;;;;5043783;28;20017;-60
2023/04/12 11:29:24;;;;;;;3.33;1.98;;;;;;;;;;5056676;28;20302;-59
2023/04/12 11:31:49;;;;;;;3.10;1.92;;;;;;;;;;5039242;28;20019;-60
2023/04/12 11:34:16;;;;;;;3.45;2.05;;;;;;;;;;5049164;28;20115;-60
2023/04/12 11:36:41;;;;;;;3.33;1.90;;;;;;;;;;5043914;28;20107;-60
2023/04/12 11:39:06;;;;;;;4.03;1.80;;;;;;;;;;5026441;28;20029;-60
2023/04/12 11:41:31;;;;;;;3.53;1.97;;;;;;;;;;5035936;28;20266;-62
2023/04/12 11:43:57;;;;;;;3.40;1.90;;;;;;;;;;5063680;28;20082;-60
2023/04/12 11:46:22;;;;;;;2.67;2.03;;;;;;;;;;5044702;28;20536;-60
2023/04/12 11:48:48;;;;;;;3.10;1.92;;;;;;;;;;5044129;28;20371;-60
2023/04/12 11:51:20;;;;;;;3.20;2.00;;;;;;;;;;5034126;28;20028;-60
2023/04/12 11:53:45;;;;;;;3.22;2.03;;;;;;;;;;5035255;28;20064;-58
2023/04/12 11:56:10;;;;;;;3.53;1.88;;;;;;;;;;5052413;28;20117;-61
2023/04/12 11:58:35;;;;;;;3.13;1.70;;;;;;;;;;5030701;28;20029;-60
2023/04/12 12:01:01;;;;;;;4.13;2.07;;;;;;;;;;5055789;28;20449;-60
2023/04/12 12:03:26;;;;;;;4.15;2.00;;;;;;;;;;5055647;28;20071;-61
2023/04/12 12:05:51;;;;;;;4.25;1.95;;;;;;;;;;5052659;28;20422;-60
2023/04/12 12:08:17;;;;;;;2.63;1.53;;;;;;;;;;5051577;28;20041;-62
2023/04/12 12:10:42;;;;;;;2.83;1.70;;;;;;;;;;5041228;28;20302;-60
2023/04/12 12:13:11;;;;;;;2.50;1.60;;;;;;;;;;5048138;28;20037;-60
2023/04/12 12:15:36;;;;;;;3.58;1.80;;;;;;;;;;5029352;28;20660;-60
2023/04/12 12:18:01;;;;;;;1.90;1.00;;;;;;;;;;5036139;28;20068;-60
2023/04/12 12:20:27;;;;;;;3.15;1.70;;;;;;;;;;5055837;28;20036;-59
2023/04/12 12:22:52;;;;;;;2.73;1.60;;;;;;;;;;5066675;28;20139;-60
2023/04/12 12:25:18;;;;;;;2.58;1.75;;;;;;;;;;5054158;28;20072;-60
2023/04/12 12:27:46;;;;;;;2.90;1.92;;;;;;;;;;5039177;28;20032;-59
2023/04/12 12:30:13;;;;;;;3.40;1.83;;;;;;;;;;5041206;28;20059;-60
2023/04/12 12:32:38;;;;;;;2.78;1.70;;;;;;;;;;5029378;28;20111;-59
2023/04/12 12:35:11;;;;;;;2.47;1.20;;;;;;;;;;5047297;28;20702;-60
2023/04/12 12:37:36;;;;;;;3.97;1.80;;;;;;;;;;5029673;28;20040;-59
2023/04/12 12:40:15;;;;;;;4.32;1.80;;;;;;;;;;5041714;28;20044;-60
2023/04/12 12:42:47;;;;;;;3.80;1.70;;;;;;;;;;5053549;28;20032;-60
2023/04/12 12:45:12;;;;;;;2.05;1.30;;;;;;;;;;5035348;28;20111;-60
2023/04/12 12:47:44;;;;;;;2.60;1.73;;;;;;;;;;5052777;28;20685;-60
2023/04/12 12:50:13;;;;;;;2.13;1.55;;;;;;;;;;5031381;28;20048;-60
2023/04/12 12:52:38;;;;;;;2.90;1.50;;;;;;;;;;5058513;28;20113;-60
2023/04/12 12:55:03;;;;;;;2.47;1.57;;;;;;;;;;5037539;28;20075;-60
2023/04/12 12:57:28;;;;;;;2.92;1.65;;;;;;;;;;5061479;28;20105;-59
2023/04/12 12:59:54;;;;;;;2.50;1.43;;;;;;;;;;5055760;28;20118;-61
2023/04/12 13:02:19;;;;;;;2.83;1.40;;;;;;;;;;5052683;28;20095;-62
2023/04/12 13:04:44;;;;;;;2.60;1.60;;;;;;;;;;5057247;28;20418;-60
2023/04/12 13:07:10;;;;;;;2.83;1.63;;;;;;;;;;5046199;28;20522;-60
2023/04/12 13:09:35;;;;;;;2.42;1.73;;;;;;;;;;5048182;28;20504;-60
2023/04/12 13:12:01;;;;;;;2.70;1.43;;;;;;;;;;5050952;28;20404;-61
2023/04/12 13:14:26;;;;;;;2.67;1.60;;;;;;;;;;5048350;28;20476;-59
2023/04/12 13:16:51;;;;;;;1.92;1.40;;;;;;;;;;5028960;28;20037;-60
2023/04/12 13:19:16;;;;;;;2.13;1.30;;;;;;;;;;5045740;28;20071;-60
2023/04/12 13:21:42;;;;;;;4.73;1.97;;;;;;;;;;5047697;28;20286;-60
2023/04/12 13:24:08;;;;;;;3.47;1.50;;;;;;;;;;5048248;28;20313;-60
2023/04/12 13:26:33;;;;;;;3.47;1.50;;;;;;;;;;5052453;28;20086;-60
2023/04/12 13:28:59;;;;;;;3.20;1.42;;;;;;;;;;5050393;28;20032;-64
2023/04/12 13:31:24;;;;;;;3.10;1.70;;;;;;;;;;5049979;28;20513;-60
2023/04/12 13:33:50;;;;;;;3.17;1.65;;;;;;;;;;5046503;28;20029;-61
2023/04/12 13:36:15;;;;;;;1.80;1.30;;;;;;;;;;5046028;28;20719;-61
2023/04/12 13:38:40;;;;;;;3.27;1.60;;;;;;;;;;5050454;28;20275;-60
2023/04/12 13:41:05;;;;;;;3.50;1.20;;;;;;;;;;5052204;28;20283;-61
2023/04/12 13:43:31;;;;;;;3.60;1.43;;;;;;;;;;5048722;28;20049;-60
2023/04/12 13:45:56;;;;;;;4.00;1.60;;;;;;;;;;5058200;28;20283;-60
2023/04/12 13:48:22;;;;;;;2.13;1.30;;;;;;;;;;5059449;28;20875;-60
2023/04/12 13:50:47;;;;;;;3.50;1.20;;;;;;;;;;5055647;28;20295;-59
2023/04/12 13:53:12;;;;;;;2.87;1.30;;;;;;;;;;5050387;28;20095;-62
2023/04/12 13:55:38;;;;;;;2.08;1.40;;;;;;;;;;5046199;28;20272;-60
2023/04/12 13:58:03;;;;;;;3.43;1.47;;;;;;;;;;5051987;28;20682;-60
2023/04/12 14:00:28;;;;;;;2.47;1.10;;;;;;;;;;5049026;28;20033;-60
2023/04/12 14:02:53;;;;;;;2.53;1.27;;;;;;;;;;5049268;28;20271;-60
2023/04/12 14:05:19;;;;;;;3.33;1.20;;;;;;;;;;5053286;28;20051;-60
2023/04/12 14:07:46;;;;;;;2.20;1.10;;;;;;;;;;5049992;28;20309;-61
2023/04/12 14:10:11;;;;;;;2.78;1.30;;;;;;;;;;5030914;28;20072;-60
2023/04/12 14:12:36;;;;;;;2.63;1.40;;;;;;;;;;5051516;28;20521;-60
2023/04/12 14:15:02;;;;;;;3.15;1.50;;;;;;;;;;5045749;28;20513;-59
2023/04/12 14:17:30;;;;;;;3.25;1.42;;;;;;;;;;5032235;28;20041;-60
2023/04/12 14:19:56;;;;;;;2.13;1.15;;;;;;;;;;5063567;28;20473;-60
2023/04/12 14:22:21;;;;;;;2.80;1.40;;;;;;;;;;5057286;28;20055;-60
2023/04/12 14:24:46;;;;;;;3.07;1.40;;;;;;;;;;5054098;28;20267;-60
2023/04/12 14:27:13;;;;;;;2.92;1.33;;;;;;;;;;5058062;28;20029;-60
2023/04/12 14:29:38;;;;;;;2.45;1.30;;;;;;;;;;5030840;28;20065;-61
2023/04/12 14:32:04;;;;;;;3.15;1.27;;;;;;;;;;5037125;28;20152;-60
2023/04/12 14:34:30;;;;;;;3.08;1.10;;;;;;;;;;5045423;28;20053;-60
2023/04/12 14:36:55;;;;;;;2.88;1.35;;;;;;;;;;5026484;28;20488;-60